Terminal Aerodrome Forecast
Issued by NWS

Current Version | Previous Version | Text Only | Print | Product List | Glossary Off
Versions: 1 2 3 4 5 6 7 8 9 10 11 12 13 14 15 16 17 18 19 20

000
FTUS41 KILN 251729
TAFLCK
TAF
KLCK 251729Z 2518/2618 26010KT P6SM SCT035 SCT120 SCT250
     FM252000 29007KT P6SM SCT040 BKN120 BKN250
     FM260300 32003KT P6SM SCT120 BKN250
     FM261300 35004KT P6SM SCT150 BKN250
     FM261600 36005KT P6SM SCT035 BKN150 BKN250=

USA.gov is the U.S. government's official web portal to all federal, state and local government web resources and services.